Vagabond — WDD3483 — position and weather

sailwx.info

Track history (hours):
 
Tides and Currents Weather Stations Pressure Air Temp Water Temp Dewpoint Dewpoint Depression Visibility Wind Speed Wind Dir Waves Ship Positions

Vagabond

Owner: Smith, Bradford L, Bellevue, WA. More information available from US FCC via Universal Licensing System and Coast Guard Vessel Documentation Center.

Last reported at 2016-Aug-24 22:32 UTC. Time now 2016-Aug-24 23:18 UTC.
Position N 47°38' W 122°23'.

Length 27 m.

Type: Pleasure craft. MMSI: 367132020.

Date/timePositionNaut miles runAvg speedWind from/ knotsBaromVisibWave heightAir tempDewpointWater temp
2016-Aug-24 22:32N 47°38' W 122°23'0 0.0
2016-Aug-24 21:32N 47°38' W 122°23'0 0.0
2016-Aug-24 20:32N 47°38' W 122°23'0 0.0
2016-Aug-24 19:32N 47°38' W 122°23'0 0.0
2016-Aug-24 18:33N 47°38' W 122°23'0 0.0
2016-Aug-24 17:32N 47°38' W 122°23'0 0.0
2016-Aug-24 16:32N 47°38' W 122°23'0 0.0
2016-Aug-24 15:32N 47°38' W 122°23'0 0.0
2016-Aug-24 14:32N 47°38' W 122°23'0 0.0
2016-Aug-24 13:29N 47°38' W 122°23'0 0.0
2016-Aug-24 12:32N 47°38' W 122°23'0 0.0
2016-Aug-24 11:32N 47°38' W 122°23'0 0.0
2016-Aug-24 10:32N 47°38' W 122°23'0 0.0
2016-Aug-24 09:32N 47°38' W 122°23'0 0.0
2016-Aug-24 08:32N 47°38' W 122°23'0 0.0
2016-Aug-24 07:32N 47°38' W 122°23'0 0.0
2016-Aug-24 06:32N 47°38' W 122°23'0 0.0
2016-Aug-24 04:33N 47°38' W 122°23'0 0.0
2016-Aug-24 03:32N 47°38' W 122°23'0 0.0
2016-Aug-24 02:33N 47°38' W 122°23'0 0.0
2016-Aug-24 01:32N 47°38' W 122°23'0 0.0
2016-Aug-24 00:32N 47°38' W 122°23'0 0.0
2016-Aug-23 23:32N 47°38' W 122°23'0 0.0
2016-Aug-23 22:32N 47°38' W 122°23'0 0.0
2016-Aug-23 21:33N 47°38' W 122°23'0 0.0
2016-Aug-23 20:26N 47°38' W 122°23'0 0.0
2016-Aug-23 19:20N 47°38' W 122°23'0 0.0
2016-Aug-23 18:32N 47°38' W 122°23'0 0.0
2016-Aug-23 17:32N 47°38' W 122°23'0 0.0
2016-Aug-23 16:32N 47°38' W 122°23'0 0.0
2016-Aug-23 15:32N 47°38' W 122°23'0 0.0
2016-Aug-23 14:29N 47°38' W 122°23'0 0.0
2016-Aug-23 13:32N 47°38' W 122°23'0 0.0
2016-Aug-23 12:32N 47°38' W 122°23'0 0.0
2016-Aug-23 11:33N 47°38' W 122°23'0 0.0
2016-Aug-23 10:32N 47°38' W 122°23'0 0.0
2016-Aug-23 09:32N 47°38' W 122°23'0 0.0
2016-Aug-23 08:32N 47°38' W 122°23'0 0.0
2016-Aug-23 07:32N 47°38' W 122°23'0 0.0
2016-Aug-23 06:32N 47°38' W 122°23'0 0.0
2016-Aug-23 05:32N 47°38' W 122°23'0 0.0
2016-Aug-23 04:32N 47°38' W 122°23'0 0.0
2016-Aug-23 03:32N 47°38' W 122°23'0 0.0
2016-Aug-23 02:32N 47°38' W 122°23'0 0.0
2016-Aug-23 01:32N 47°38' W 122°23'0 0.0
2016-Aug-23 00:33N 47°38' W 122°23'0 0.0
2016-Aug-22 23:32N 47°38' W 122°23'1111.8
2016-Aug-22 22:34N 47°49' W 122°26'4719.5
2016-Aug-22 20:10N 48°28' W 123°05'712.2
2016-Aug-22 19:34N 48°34' W 123°11'3 1.0
2016-Aug-22 16:29N 48°37' W 123°09'0 0.0
2016-Aug-22 11:07N 48°37' W 123°09'0 0.0
2016-Aug-22 07:11N 48°37' W 123°09'0 0.0
2016-Aug-22 06:28N 48°37' W 123°09'0 0.0
2016-Aug-22 04:14N 48°37' W 123°09'1 0.1
2016-Aug-21 19:06N 48°37' W 123°10'815.0
2016-Aug-21 18:33N 48°33' W 122°59'3614.6
2016-Aug-21 16:06N 48°05' W 122°26'1120.4
2016-Aug-21 15:33N 47°54' W 122°21'1615.6
2016-Aug-21 14:30N 47°38' W 122°23'0 0.0
2016-Aug-21 13:31N 47°38' W 122°23'0 0.0
2016-Aug-21 12:33N 47°38' W 122°23'0 0.0
2016-Aug-21 11:33N 47°38' W 122°23'0 0.0
2016-Aug-21 10:33N 47°38' W 122°23'0 0.0
2016-Aug-21 09:33N 47°38' W 122°23'0 0.0
2016-Aug-21 08:33N 47°38' W 122°23'0 0.0
2016-Aug-21 07:33N 47°38' W 122°23'0 0.0
2016-Aug-21 06:33N 47°38' W 122°23'0 0.0
2016-Aug-21 05:33N 47°38' W 122°23'0 0.0
2016-Aug-21 04:33N 47°38' W 122°23'0 0.0
2016-Aug-21 03:33N 47°38' W 122°23'0 0.0
2016-Aug-21 02:33N 47°38' W 122°23'0 0.0
2016-Aug-21 01:33N 47°38' W 122°23'0 0.0
2016-Aug-21 00:33N 47°38' W 122°23'5 5.2
2016-Aug-20 23:33N 47°41' W 122°29'4 0.7
2016-Aug-20 18:22N 47°43' W 122°34'910.3
2016-Aug-20 17:31N 47°38' W 122°23'0 0.0
2016-Aug-20 16:32N 47°38' W 122°23'0 0.0
2016-Aug-20 15:31N 47°38' W 122°23'0 0.0
2016-Aug-20 14:32N 47°38' W 122°23'0 0.0
2016-Aug-20 13:31N 47°38' W 122°23'0 0.0
2016-Aug-20 12:32N 47°38' W 122°23'0 0.0
2016-Aug-20 11:31N 47°38' W 122°23'0 0.0
2016-Aug-20 10:31N 47°38' W 122°23'0 0.0
2016-Aug-20 09:31N 47°38' W 122°23'0 0.0
2016-Aug-20 08:31N 47°38' W 122°23'0 0.0
2016-Aug-20 07:31N 47°38' W 122°23'0 0.0
2016-Aug-20 06:31N 47°38' W 122°23'0 0.0
2016-Aug-20 05:22N 47°38' W 122°23'0 0.0
2016-Aug-20 04:31N 47°38' W 122°23'0 0.0
2016-Aug-20 03:31N 47°38' W 122°23'0 0.0
2016-Aug-20 02:31N 47°38' W 122°23'0 0.0
2016-Aug-20 01:31N 47°38' W 122°23'0 0.0
2016-Aug-20 00:16N 47°38' W 122°23'0 0.0
2016-Aug-19 23:28N 47°38' W 122°23'0 0.0
2016-Aug-19 12:31N 47°38' W 122°23'0 0.0
2016-Aug-19 11:28N 47°38' W 122°23'0 0.0
2016-Aug-19 10:28N 47°38' W 122°23'0 0.0
2016-Aug-19 09:25N 47°38' W 122°23'0 0.0
2016-Aug-19 08:31N 47°38' W 122°23'0 0.0
2016-Aug-19 07:31N 47°38' W 122°23'0 0.0
2016-Aug-19 06:31N 47°38' W 122°23'0 0.0
2016-Aug-19 05:31N 47°38' W 122°23'0 0.0
2016-Aug-19 04:32N 47°38' W 122°23'0 0.0
2016-Aug-19 03:32N 47°38' W 122°23'0 0.0
2016-Aug-19 02:32N 47°38' W 122°23'0 0.0
2016-Aug-19 01:32N 47°38' W 122°23'0 0.0
2016-Aug-19 00:31N 47°38' W 122°23'0 0.0
2016-Aug-18 23:32N 47°38' W 122°23'0 0.0
2016-Aug-18 22:32N 47°38' W 122°23'0 0.0
2016-Aug-18 21:32N 47°38' W 122°23'0 0.0
2016-Aug-18 20:32N 47°38' W 122°23'0 0.0
2016-Aug-18 19:32N 47°38' W 122°23'0 0.0
2016-Aug-18 18:32N 47°38' W 122°23'0 0.0
2016-Aug-18 17:25N 47°38' W 122°23'0 0.0
2016-Aug-18 16:32N 47°38' W 122°23'0 0.0
2016-Aug-18 15:32N 47°38' W 122°23'0 0.0
2016-Aug-18 14:32N 47°38' W 122°23'0 0.0
2016-Aug-18 13:32N 47°38' W 122°23'0 0.0
2016-Aug-18 12:31N 47°38' W 122°23'0 0.0
2016-Aug-18 11:32N 47°38' W 122°23'0 0.0
2016-Aug-18 10:32N 47°38' W 122°23'0 0.0
2016-Aug-18 09:32N 47°38' W 122°23'0 0.0
2016-Aug-18 08:31N 47°38' W 122°23'0 0.0
2016-Aug-18 07:31N 47°38' W 122°23'0 0.0
2016-Aug-18 06:32N 47°38' W 122°23'0 0.0
2016-Aug-18 05:31N 47°38' W 122°23'0 0.0
2016-Aug-18 04:31N 47°38' W 122°23'0 0.0
2016-Aug-18 03:32N 47°38' W 122°23'0 0.0
2016-Aug-18 02:32N 47°38' W 122°23'0 0.0
2016-Aug-18 01:29N 47°38' W 122°23'0 0.0
2016-Aug-18 00:31N 47°38' W 122°23'0 0.0
2016-Aug-17 23:32N 47°38' W 122°23'0 0.0
2016-Aug-17 22:32N 47°38' W 122°23'0 0.0
2016-Aug-17 21:18N 47°38' W 122°23'0 0.0
2016-Aug-17 18:28N 47°38' W 122°23'0 0.0
2016-Aug-17 16:16N 47°38' W 122°23'0 0.0
2016-Aug-17 15:31N 47°38' W 122°23'0 0.0
2016-Aug-17 14:31N 47°38' W 122°23'0 0.0
2016-Aug-17 13:32N 47°38' W 122°23'0 0.0
2016-Aug-17 12:32N 47°38' W 122°23'0 0.0
2016-Aug-17 11:31N 47°38' W 122°23'0 0.0
2016-Aug-17 10:32N 47°38' W 122°23'0 0.0
2016-Aug-17 09:31N 47°38' W 122°23'0 0.0
2016-Aug-17 08:31N 47°38' W 122°23'0 0.0
2016-Aug-17 07:31N 47°38' W 122°23'0 0.0
2016-Aug-17 06:31N 47°38' W 122°23'0 0.0
2016-Aug-17 05:32N 47°38' W 122°23'0 0.0
2016-Aug-17 04:29N 47°38' W 122°23'0 0.0
2016-Aug-17 03:32N 47°38' W 122°23'0 0.0
2016-Aug-17 02:32N 47°38' W 122°23'0 0.0
2016-Aug-17 01:16N 47°38' W 122°23'0 0.0
2016-Aug-17 00:23N 47°38' W 122°23'0 0.0
2016-Aug-16 23:33N 47°38' W 122°23'2 0.8
2016-Aug-16 21:33N 47°38' W 122°25'6115.2
2016-Aug-16 17:33N 48°32' W 123°10'24 2.3
2016-Aug-16 07:17N 48°53' W 123°24'8 1.4
2016-Aug-16 01:33N 48°58' W 123°34'1716.2
2016-Aug-16 00:32N 49°13' W 123°46'2120.3
2016-Aug-15 23:30N 49°22' W 124°15'1818.9
2016-Aug-15 22:33N 49°34' W 124°36'2017.8
2016-Aug-15 21:26N 49°48' W 124°57'1618.0
2016-Aug-15 20:33N 50°00' W 125°13'2 1.8
2016-Aug-15 19:28N 50°02' W 125°15'0 0.0
2016-Aug-15 18:28N 50°02' W 125°15'0 0.0
2016-Aug-15 17:16N 50°02' W 125°15'0 0.0
2016-Aug-15 16:28N 50°02' W 125°15'0 0.0
2016-Aug-15 15:22N 50°02' W 125°15'0 0.0
2016-Aug-15 14:31N 50°02' W 125°15'0 0.0
2016-Aug-15 13:28N 50°02' W 125°15'0 0.0
2016-Aug-15 12:31N 50°02' W 125°15'0 0.0
2016-Aug-15 11:25N 50°02' W 125°15'0 0.0
2016-Aug-15 10:31N 50°02' W 125°15'0 0.0
2016-Aug-15 09:31N 50°02' W 125°15'0 0.0
2016-Aug-15 08:31N 50°02' W 125°15'0 0.0
2016-Aug-15 07:31N 50°02' W 125°15'0 0.0
2016-Aug-15 06:31N 50°02' W 125°15'0 0.0
2016-Aug-15 04:28N 50°02' W 125°15'0 0.0
2016-Aug-15 03:28N 50°02' W 125°15'0 0.0
2016-Aug-15 02:28N 50°02' W 125°15'0 0.0
2016-Aug-15 01:31N 50°02' W 125°15'0 0.0
2016-Aug-15 00:31N 50°02' W 125°15'0 0.0
2016-Aug-14 23:31N 50°02' W 125°15'  
Track history (hours):
 
Tides and Currents Weather Stations Pressure Air Temp Water Temp Dewpoint Dewpoint Depression Visibility Wind Speed Wind Dir Waves Ship Positions

Vagabond

Owner: Smith, Bradford L, Bellevue, WA. More information available from US FCC via Universal Licensing System and Coast Guard Vessel Documentation Center.

Last reported at 2016-Aug-24 22:32 UTC. Time now 2016-Aug-24 23:18 UTC.
Position N 47°38' W 122°23'.

Length 27 m.

Type: Pleasure craft. MMSI: 367132020.

Date/timePositionNaut miles runAvg speedWind from/ knotsBaromVisibWave heightAir tempDewpointWater temp
2016-Aug-24 22:32N 47°38' W 122°23'0 0.0
2016-Aug-24 21:32N 47°38' W 122°23'0 0.0
2016-Aug-24 20:32N 47°38' W 122°23'0 0.0
2016-Aug-24 19:32N 47°38' W 122°23'0 0.0
2016-Aug-24 18:33N 47°38' W 122°23'0 0.0
2016-Aug-24 17:32N 47°38' W 122°23'0 0.0
2016-Aug-24 16:32N 47°38' W 122°23'0 0.0
2016-Aug-24 15:32N 47°38' W 122°23'0 0.0
2016-Aug-24 14:32N 47°38' W 122°23'0 0.0
2016-Aug-24 13:29N 47°38' W 122°23'0 0.0
2016-Aug-24 12:32N 47°38' W 122°23'0 0.0
2016-Aug-24 11:32N 47°38' W 122°23'0 0.0
2016-Aug-24 10:32N 47°38' W 122°23'0 0.0
2016-Aug-24 09:32N 47°38' W 122°23'0 0.0
2016-Aug-24 08:32N 47°38' W 122°23'0 0.0
2016-Aug-24 07:32N 47°38' W 122°23'0 0.0
2016-Aug-24 06:32N 47°38' W 122°23'0 0.0
2016-Aug-24 04:33N 47°38' W 122°23'0 0.0
2016-Aug-24 03:32N 47°38' W 122°23'0 0.0
2016-Aug-24 02:33N 47°38' W 122°23'0 0.0
2016-Aug-24 01:32N 47°38' W 122°23'0 0.0
2016-Aug-24 00:32N 47°38' W 122°23'0 0.0
2016-Aug-23 23:32N 47°38' W 122°23'0 0.0
2016-Aug-23 22:32N 47°38' W 122°23'0 0.0
2016-Aug-23 21:33N 47°38' W 122°23'0 0.0
2016-Aug-23 20:26N 47°38' W 122°23'0 0.0
2016-Aug-23 19:20N 47°38' W 122°23'0 0.0
2016-Aug-23 18:32N 47°38' W 122°23'0 0.0
2016-Aug-23 17:32N 47°38' W 122°23'0 0.0
2016-Aug-23 16:32N 47°38' W 122°23'0 0.0
2016-Aug-23 15:32N 47°38' W 122°23'0 0.0
2016-Aug-23 14:29N 47°38' W 122°23'0 0.0
2016-Aug-23 13:32N 47°38' W 122°23'0 0.0
2016-Aug-23 12:32N 47°38' W 122°23'0 0.0
2016-Aug-23 11:33N 47°38' W 122°23'0 0.0
2016-Aug-23 10:32N 47°38' W 122°23'0 0.0
2016-Aug-23 09:32N 47°38' W 122°23'0 0.0
2016-Aug-23 08:32N 47°38' W 122°23'0 0.0
2016-Aug-23 07:32N 47°38' W 122°23'0 0.0
2016-Aug-23 06:32N 47°38' W 122°23'0 0.0
2016-Aug-23 05:32N 47°38' W 122°23'0 0.0
2016-Aug-23 04:32N 47°38' W 122°23'0 0.0
2016-Aug-23 03:32N 47°38' W 122°23'0 0.0
2016-Aug-23 02:32N 47°38' W 122°23'0 0.0
2016-Aug-23 01:32N 47°38' W 122°23'0 0.0
2016-Aug-23 00:33N 47°38' W 122°23'0 0.0
2016-Aug-22 23:32N 47°38' W 122°23'1111.8
2016-Aug-22 22:34N 47°49' W 122°26'4719.5
2016-Aug-22 20:10N 48°28' W 123°05'712.2
2016-Aug-22 19:34N 48°34' W 123°11'3 1.0
2016-Aug-22 16:29N 48°37' W 123°09'0 0.0
2016-Aug-22 11:07N 48°37' W 123°09'0 0.0
2016-Aug-22 07:11N 48°37' W 123°09'0 0.0
2016-Aug-22 06:28N 48°37' W 123°09'0 0.0
2016-Aug-22 04:14N 48°37' W 123°09'1 0.1
2016-Aug-21 19:06N 48°37' W 123°10'815.0
2016-Aug-21 18:33N 48°33' W 122°59'3614.6
2016-Aug-21 16:06N 48°05' W 122°26'1120.4
2016-Aug-21 15:33N 47°54' W 122°21'1615.6
2016-Aug-21 14:30N 47°38' W 122°23'0 0.0
2016-Aug-21 13:31N 47°38' W 122°23'0 0.0
2016-Aug-21 12:33N 47°38' W 122°23'0 0.0
2016-Aug-21 11:33N 47°38' W 122°23'0 0.0
2016-Aug-21 10:33N 47°38' W 122°23'0 0.0
2016-Aug-21 09:33N 47°38' W 122°23'0 0.0
2016-Aug-21 08:33N 47°38' W 122°23'0 0.0
2016-Aug-21 07:33N 47°38' W 122°23'0 0.0
2016-Aug-21 06:33N 47°38' W 122°23'0 0.0
2016-Aug-21 05:33N 47°38' W 122°23'0 0.0
2016-Aug-21 04:33N 47°38' W 122°23'0 0.0
2016-Aug-21 03:33N 47°38' W 122°23'0 0.0
2016-Aug-21 02:33N 47°38' W 122°23'0 0.0
2016-Aug-21 01:33N 47°38' W 122°23'0 0.0
2016-Aug-21 00:33N 47°38' W 122°23'5 5.2
2016-Aug-20 23:33N 47°41' W 122°29'4 0.7
2016-Aug-20 18:22N 47°43' W 122°34'910.3
2016-Aug-20 17:31N 47°38' W 122°23'0 0.0
2016-Aug-20 16:32N 47°38' W 122°23'0 0.0
2016-Aug-20 15:31N 47°38' W 122°23'0 0.0
2016-Aug-20 14:32N 47°38' W 122°23'0 0.0
2016-Aug-20 13:31N 47°38' W 122°23'0 0.0
2016-Aug-20 12:32N 47°38' W 122°23'0 0.0
2016-Aug-20 11:31N 47°38' W 122°23'0 0.0
2016-Aug-20 10:31N 47°38' W 122°23'0 0.0
2016-Aug-20 09:31N 47°38' W 122°23'0 0.0
2016-Aug-20 08:31N 47°38' W 122°23'0 0.0
2016-Aug-20 07:31N 47°38' W 122°23'0 0.0
2016-Aug-20 06:31N 47°38' W 122°23'0 0.0
2016-Aug-20 05:22N 47°38' W 122°23'0 0.0
2016-Aug-20 04:31N 47°38' W 122°23'0 0.0
2016-Aug-20 03:31N 47°38' W 122°23'0 0.0
2016-Aug-20 02:31N 47°38' W 122°23'0 0.0
2016-Aug-20 01:31N 47°38' W 122°23'0 0.0
2016-Aug-20 00:16N 47°38' W 122°23'0 0.0
2016-Aug-19 23:28N 47°38' W 122°23'0 0.0
2016-Aug-19 12:31N 47°38' W 122°23'0 0.0
2016-Aug-19 11:28N 47°38' W 122°23'0 0.0
2016-Aug-19 10:28N 47°38' W 122°23'0 0.0
2016-Aug-19 09:25N 47°38' W 122°23'0 0.0
2016-Aug-19 08:31N 47°38' W 122°23'0 0.0
2016-Aug-19 07:31N 47°38' W 122°23'0 0.0
2016-Aug-19 06:31N 47°38' W 122°23'0 0.0
2016-Aug-19 05:31N 47°38' W 122°23'0 0.0
2016-Aug-19 04:32N 47°38' W 122°23'0 0.0
2016-Aug-19 03:32N 47°38' W 122°23'0 0.0
2016-Aug-19 02:32N 47°38' W 122°23'0 0.0
2016-Aug-19 01:32N 47°38' W 122°23'0 0.0
2016-Aug-19 00:31N 47°38' W 122°23'0 0.0
2016-Aug-18 23:32N 47°38' W 122°23'0 0.0
2016-Aug-18 22:32N 47°38' W 122°23'0 0.0
2016-Aug-18 21:32N 47°38' W 122°23'0 0.0
2016-Aug-18 20:32N 47°38' W 122°23'0 0.0
2016-Aug-18 19:32N 47°38' W 122°23'0 0.0
2016-Aug-18 18:32N 47°38' W 122°23'0 0.0
2016-Aug-18 17:25N 47°38' W 122°23'0 0.0
2016-Aug-18 16:32N 47°38' W 122°23'0 0.0
2016-Aug-18 15:32N 47°38' W 122°23'0 0.0
2016-Aug-18 14:32N 47°38' W 122°23'0 0.0
2016-Aug-18 13:32N 47°38' W 122°23'0 0.0
2016-Aug-18 12:31N 47°38' W 122°23'0 0.0
2016-Aug-18 11:32N 47°38' W 122°23'0 0.0
2016-Aug-18 10:32N 47°38' W 122°23'0 0.0
2016-Aug-18 09:32N 47°38' W 122°23'0 0.0
2016-Aug-18 08:31N 47°38' W 122°23'0 0.0
2016-Aug-18 07:31N 47°38' W 122°23'0 0.0
2016-Aug-18 06:32N 47°38' W 122°23'0 0.0
2016-Aug-18 05:31N 47°38' W 122°23'0 0.0
2016-Aug-18 04:31N 47°38' W 122°23'0 0.0
2016-Aug-18 03:32N 47°38' W 122°23'0 0.0
2016-Aug-18 02:32N 47°38' W 122°23'0 0.0
2016-Aug-18 01:29N 47°38' W 122°23'0 0.0
2016-Aug-18 00:31N 47°38' W 122°23'0 0.0
2016-Aug-17 23:32N 47°38' W 122°23'0 0.0
2016-Aug-17 22:32N 47°38' W 122°23'0 0.0
2016-Aug-17 21:18N 47°38' W 122°23'0 0.0
2016-Aug-17 18:28N 47°38' W 122°23'0 0.0
2016-Aug-17 16:16N 47°38' W 122°23'0 0.0
2016-Aug-17 15:31N 47°38' W 122°23'0 0.0
2016-Aug-17 14:31N 47°38' W 122°23'0 0.0
2016-Aug-17 13:32N 47°38' W 122°23'0 0.0
2016-Aug-17 12:32N 47°38' W 122°23'0 0.0
2016-Aug-17 11:31N 47°38' W 122°23'0 0.0
2016-Aug-17 10:32N 47°38' W 122°23'0 0.0
2016-Aug-17 09:31N 47°38' W 122°23'0 0.0
2016-Aug-17 08:31N 47°38' W 122°23'0 0.0
2016-Aug-17 07:31N 47°38' W 122°23'0 0.0
2016-Aug-17 06:31N 47°38' W 122°23'0 0.0
2016-Aug-17 05:32N 47°38' W 122°23'0 0.0
2016-Aug-17 04:29N 47°38' W 122°23'0 0.0
2016-Aug-17 03:32N 47°38' W 122°23'0 0.0
2016-Aug-17 02:32N 47°38' W 122°23'0 0.0
2016-Aug-17 01:16N 47°38' W 122°23'0 0.0
2016-Aug-17 00:23N 47°38' W 122°23'0 0.0
2016-Aug-16 23:33N 47°38' W 122°23'2 0.8
2016-Aug-16 21:33N 47°38' W 122°25'6115.2
2016-Aug-16 17:33N 48°32' W 123°10'24 2.3
2016-Aug-16 07:17N 48°53' W 123°24'8 1.4
2016-Aug-16 01:33N 48°58' W 123°34'1716.2
2016-Aug-16 00:32N 49°13' W 123°46'2120.3
2016-Aug-15 23:30N 49°22' W 124°15'1818.9
2016-Aug-15 22:33N 49°34' W 124°36'2017.8
2016-Aug-15 21:26N 49°48' W 124°57'1618.0
2016-Aug-15 20:33N 50°00' W 125°13'2 1.8
2016-Aug-15 19:28N 50°02' W 125°15'0 0.0
2016-Aug-15 18:28N 50°02' W 125°15'0 0.0
2016-Aug-15 17:16N 50°02' W 125°15'0 0.0
2016-Aug-15 16:28N 50°02' W 125°15'0 0.0
2016-Aug-15 15:22N 50°02' W 125°15'0 0.0
2016-Aug-15 14:31N 50°02' W 125°15'0 0.0
2016-Aug-15 13:28N 50°02' W 125°15'0 0.0
2016-Aug-15 12:31N 50°02' W 125°15'0 0.0
2016-Aug-15 11:25N 50°02' W 125°15'0 0.0
2016-Aug-15 10:31N 50°02' W 125°15'0 0.0
2016-Aug-15 09:31N 50°02' W 125°15'0 0.0
2016-Aug-15 08:31N 50°02' W 125°15'0 0.0
2016-Aug-15 07:31N 50°02' W 125°15'0 0.0
2016-Aug-15 06:31N 50°02' W 125°15'0 0.0
2016-Aug-15 04:28N 50°02' W 125°15'0 0.0
2016-Aug-15 03:28N 50°02' W 125°15'0 0.0
2016-Aug-15 02:28N 50°02' W 125°15'0 0.0
2016-Aug-15 01:31N 50°02' W 125°15'0 0.0
2016-Aug-15 00:31N 50°02' W 125°15'0 0.0
2016-Aug-14 23:31N 50°02' W 125°15'  

Dump ship's entire track history